NEODyS-2

Near Earth Objects - Dynamic Site
NEODyS ∴ Observatories ∴ Site 691 ∴ Obs & residuals
Contact »
691  ▹ 
OBSERVATIONS AND RESIDUALS

691-Steward Observatory, Kitt Peak-Spacewatch

Detections | Residuals | Detections & Residuals

[1-200] [201-400] [401-600] [601-800] [801-1000] [1001-1200] [1201-1400] [1401-1600] [1601-1800] [1801-2000] [2001-2200] [2201-2400] [2401-2600] [2601-2800] [2801-3000] [3001-3200] [3201-3400] [3401-3600] [3601-3800] [3801-4000] [4001-4200] [4201-4400] [4401-4600] [4601-4800] [4801-5000] [5001-5200] [5201-5400] [5401-5600] [5601-5800] [5801-6000] [6001-6200] [6201-6400] [6401-6600] [6601-6800] [6801-7000] [7001-7200] [7201-7400] [7401-7600] [7601-7800] [7801-8000] [8001-8200] [8201-8400] [8401-8600] [8601-8800] [8801-9000] [9001-9200] [9201-9400] [9401-9600] [9601-9800] [9801-10000] [10001-10200] [10201-10400] [10401-10600] [10601-10800] [10801-11000] [11001-11200] [11201-11400] [11401-11600] [11601-11800] [11801-12000] [12001-12200] [12201-12400] [12401-12600] [12601-12800] [12801-13000] [13001-13200] [13201-13400] [13401-13600] [13601-13800] [13801-14000] [14001-14200] [14201-14400] [14401-14600] [14601-14800] [14801-15000] [15001-15200] [15201-15400] [15401-15600] [15601-15800] [15801-16000] [16001-16200] [16201-16400] [16401-16600] [16601-16800] [16801-17000] [17001-17200] [17201-17400] [17401-17600] [17601-17800] [17801-18000] [18001-18200] [18201-18400] [18401-18600] [18601-18800] [18801-19000] [19001-19200] [19201-19400] [19401-19600] [19601-19800] [19801-20000] [20001-20200] [20201-20400] [20401-20600] [20601-20800] [20801-21000] [21001-21200] [21201-21400] [21401-21600] [21601-21800] [21801-22000] [22001-22200] [22201-22400] [22401-22600] [22601-22800] [22801-23000] [23001-23200] [23201-23400] [23401-23600] [23601-23800] [23801-24000] [24001-24200] [24201-24400] [24401-24600] [24601-24800] [24801-25000] [25001-25200] [25201-25400] [25401-25600] [25601-25800] [25801-26000] [26001-26200] [26201-26400] [26401-26600] [26601-26800] [26801-27000] [27001-27200] [27201-27400] [27401-27600] [27601-27800] [27801-28000] [28001-28200] [28201-28400] [28401-28600] [28601-28800] [28801-29000] [29001-29200] [29201-29400] [29401-29600] [29601-29800] [29801-30000] [30001-30200] [30201-30400] [30401-30600] [30601-30800] [30801-31000] [31001-31200] [31201-31400] [31401-31600] [31601-31800] [31801-32000] [32001-32200] [32201-32400] [32401-32600] [32601-32800] [32801-33000] [33001-33200] [33201-33400] [33401-33600] [33601-33800] [33801-34000] [34001-34200] [34201-34400] [34401-34600] [34601-34800] [34801-35000] [35001-35200] [35201-35400] [35401-35600] [35601-35800] [35801-36000] [36001-36200] [36201-36400] [36401-36600] [36601-36800] [36801-37000] [37001-37200] [37201-37400] [37401-37600] [37601-37800] [37801-38000] [38001-38200] [38201-38400] [38401-38600] [38601-38800] [38801-39000] [39001-39200] [39201-39400] [39401-39600] [39601-39800] [39801-40000] [40001-40200] [40201-40400] [40401-40600] [40601-40800] [40801-41000] [41001-41200] [41201-41400] [41401-41600] [41601-41800] [41801-42000] [42001-42200] [42201-42400] [42401-42600] [42601-42800] [42801-43000] [43001-43200] [43201-43400] [43401-43600] [43601-43800] [43801-44000] [44001-44200] [44201-44400] [44401-44600] [44601-44800] [44801-45000] [45001-45200] [45201-45400] [45401-45600] [45601-45800] [45801-46000] [46001-46200] [46201-46400] [46401-46600] [46601-46800] [46801-47000] [47001-47200] [47201-47400] [47401-47600] [47601-47800] [47801-48000] [48001-48200] [48201-48400] [48401-48600] [48601-48800] [48801-49000] [49001-49200] [49201-49400] [49401-49600] [49601-49800] [49801-50000] [50001-50200] [50201-50388]

Designation T Tech N Date Right Ascension Declination Apparent Magnitude Star Catalog Site code χ Used A Used M
yr-mo-day precision hr:min:sec precision rms F bias residual deg min sec precision rms F bias residual mag/col rms residual
2020QQ6 O C 2020-12-05.29006 1.000E-05 00:59:59.530 1.500E-01 0.500 F -0.217 0.125 +12° 10' 59.40" 1.000E-01 0.500 F 0.343 0.615 20.6 V 0.70 0.35 o 691 1.26 Yes Yes
2020VX5 O C K 2020-12-05.29448 1.000E-05 00:59:36.600 1.500E-01 0.500 F -0.216 -0.102 +28° 22' 57.40" 1.000E-01 0.500 F 0.190 -0.012 21.6 R 0.70 0.89 o 691 0.21 Yes Yes
2020VX5 O C K 2020-12-05.30502 1.000E-05 00:59:40.170 1.500E-01 0.500 F -0.216 0.354 +28° 23' 06.20" 1.000E-01 0.500 F 0.190 0.112 o 691 0.75 Yes No
2020VX5 O C K 2020-12-05.31558 1.000E-05 00:59:43.710 1.500E-01 0.500 F -0.216 0.155 +28° 23' 14.90" 1.000E-01 0.500 F 0.190 0.189 21.2 R 0.70 0.49 o 691 0.50 Yes Yes
2020XS O C K 2020-12-05.33108 1.000E-05 03:03:59.810 1.500E-01 0.500 F -0.213 -0.732 +18° 26' 29.80" 1.000E-01 0.500 F 0.227 -0.383 20.6 R 0.70 0.28 o 691 1.69 Yes Yes
2020XS O C K 2020-12-05.34014 1.000E-05 03:03:58.720 1.500E-01 0.500 F -0.213 -1.051 +18° 25' 32.20" 1.000E-01 0.500 F 0.227 -0.693 o 691 2.57 Yes No
2020XD O C K 2020-12-05.36761 1.000E-05 05:17:35.980 1.500E-01 0.500 F -0.010 0.102 +21° 29' 19.90" 1.000E-01 0.500 F 0.262 0.102 18.5 R 0.70 -0.16 o 691 0.29 Yes Yes
2020XN O C K 2020-12-05.37209 1.000E-05 03:42:11.910 1.500E-01 0.500 F -0.323 0.155 +13° 55' 03.50" 1.000E-01 0.500 F 0.206 0.040 19.1 R 0.70 0.19 o 691 0.33 Yes Yes
2020XK O C K 2020-12-05.37447 1.000E-05 04:43:14.520 1.500E-01 0.500 F -0.174 -1.071 +19° 32' 04.80" 1.000E-01 0.500 F 0.284 -1.604 20.4 R 0.70 0.76 o 691 3.72 No Yes
2020XD O C K 2020-12-05.38203 1.000E-05 05:17:55.920 1.500E-01 0.500 F -0.010 -0.306 +21° 32' 12.40" 1.000E-01 0.500 F 0.262 -0.063 18.5 R 0.70 -0.16 o 691 0.63 Yes Yes
2020XN O C K 2020-12-05.38651 1.000E-05 03:42:08.450 1.500E-01 0.500 F -0.323 0.289 +13° 56' 05.00" 1.000E-01 0.500 F 0.206 -0.065 19.0 R 0.70 0.09 o 691 0.61 Yes Yes
2020XK O C K 2020-12-05.38890 1.000E-05 04:43:19.270 1.500E-01 0.500 F -0.174 -0.683 +19° 33' 44.10" 1.000E-01 0.500 F 0.284 -1.419 20.7 R 0.70 1.06 o 691 3.04 No Yes
2020XD O C K 2020-12-05.39647 1.000E-05 05:18:16.080 1.500E-01 0.500 F -0.010 0.611 +21° 35' 05.00" 1.000E-01 0.500 F 0.262 -0.042 18.7 R 0.70 0.04 o 691 1.24 Yes Yes
2020XN O C K 2020-12-05.40096 1.000E-05 03:42:05.020 1.500E-01 0.500 F -0.323 0.353 +13° 57' 06.90" 1.000E-01 0.500 F 0.206 0.048 19.1 R 0.70 0.20 o 691 0.73 Yes Yes
2020XG O C K 2020-12-05.40537 1.000E-05 03:44:08.190 1.500E-01 0.500 F -0.157 -0.800 +22° 11' 00.00" 1.000E-01 0.500 F 0.245 -0.785 20.3 R 0.70 -0.17 o 691 2.43 Yes Yes
2020UD O C K 2020-12-05.41406 1.000E-05 04:14:45.470 1.500E-01 0.500 F -0.171 0.133 +20° 19' 50.40" 1.000E-01 0.500 F 0.226 -0.196 o 691 0.49 Yes No
2020WF3 O C K 2020-12-05.41900 1.000E-05 04:33:53.440 1.500E-01 0.500 F -0.216 0.518 +26° 39' 50.30" 1.000E-01 0.500 F 0.254 0.337 21.2 R 0.70 1.29 o 691 1.25 Yes Yes
2020XG O C K 2020-12-05.42441 1.000E-05 03:44:00.640 1.500E-01 0.500 F -0.157 0.452 +22° 08' 52.00" 1.000E-01 0.500 F 0.245 -0.169 20.5 R 0.70 0.02 o 691 1.01 Yes Yes
2020UD O C K 2020-12-05.43309 1.000E-05 04:14:46.910 1.500E-01 0.500 F -0.171 -0.023 +20° 20' 06.40" 1.000E-01 0.500 F 0.226 -0.137 21.4 R 0.70 0.66 o 691 0.29 Yes Yes
2020WF3 O C K 2020-12-05.43803 1.000E-05 04:33:49.840 1.500E-01 0.500 F -0.216 0.387 +26° 38' 02.60" 1.000E-01 0.500 F 0.254 -0.080 20.7 R 0.70 0.79 o 691 0.80 Yes Yes
2020UD O C K 2020-12-05.45212 1.000E-05 04:14:48.440 1.500E-01 0.500 F -0.171 0.721 +20° 20' 22.10" 1.000E-01 0.500 F 0.226 -0.282 o 691 1.59 Yes No
2020WF3 O C K 2020-12-05.45706 1.000E-05 04:33:46.290 1.500E-01 0.500 F -0.216 0.346 +26° 36' 15.40" 1.000E-01 0.500 F 0.254 0.191 20.5 R 0.70 0.59 o 691 0.80 Yes Yes
2015LK21 O C K 2020-12-05.47707 1.000E-05 08:17:20.220 1.500E-01 0.500 F -0.009 0.106 -18° 46' 26.00" 1.000E-01 0.500 F -0.124 -0.062 20.4 R 0.70 0.30 o 691 0.25 Yes Yes
2020VZ5 O C K 2020-12-05.48100 1.000E-05 08:41:50.460 1.500E-01 0.500 F -0.057 0.263 -15° 40' 15.30" 1.000E-01 0.500 F -0.153 0.019 20.3 R 0.70 0.34 o 691 0.53 Yes Yes
2015LK21 O C K 2020-12-05.49302 1.000E-05 08:17:19.580 1.500E-01 0.500 F -0.009 0.020 -18° 46' 28.00" 1.000E-01 0.500 F -0.124 -0.076 20.4 R 0.70 0.30 o 691 0.16 Yes Yes
2020VZ5 O C K 2020-12-05.49695 1.000E-05 08:41:47.140 1.500E-01 0.500 F -0.057 -0.113 -15° 41' 32.50" 1.000E-01 0.500 F -0.153 -0.262 o 691 0.58 Yes No
2015LK21 O C K 2020-12-05.50544 1.000E-05 08:17:19.100 1.500E-01 0.500 F -0.009 0.207 -18° 46' 29.60" 1.000E-01 0.500 F -0.124 -0.150 20.4 R 0.70 0.30 o 691 0.52 Yes Yes
2020XG1 O C K 2020-12-05.51210 1.000E-05 05:22:27.280 1.500E-01 0.500 F -0.090 0.177 +10° 35' 50.20" 1.000E-01 0.500 F 0.265 0.082 19.8 R 0.70 0.11 o 691 0.37 Yes Yes
2020XG1 O C K 2020-12-05.52649 1.000E-05 05:22:21.000 1.500E-01 0.500 F -0.090 0.295 +10° 37' 40.90" 1.000E-01 0.500 F 0.265 0.435 20.3 R 0.70 0.61 o 691 1.04 Yes Yes
2010OL100 O C K 2020-12-06.06964 1.000E-05 20:17:06.180 1.500E-01 0.500 F -0.073 -0.155 -10° 17' 45.70" 1.000E-01 0.500 F 0.179 -0.031 20.7 R 0.70 -0.17 o 691 0.32 Yes Yes
2010OL100 O C K 2020-12-06.08038 1.000E-05 20:17:09.810 1.500E-01 0.500 F -0.073 -0.290 -10° 17' 50.90" 1.000E-01 0.500 F 0.179 1.032 o 691 2.18 Yes No
2020XR O C 2020-12-06.09206 1.000E-05 21:51:08.470 1.500E-01 0.500 F -0.078 -0.469 -01° 04' 25.20" 1.000E-01 0.500 F 0.283 -0.253 20.2 V 0.70 -0.45 o 691 1.07 Yes Yes
Ryugu O C 2020-12-06.09609 1.000E-05 23:00:17.010 1.500E-01 0.500 F -0.072 -0.182 -03° 39' 35.60" 1.000E-01 0.500 F 0.343 -0.024 17.4 V 0.70 0.62 o 691 0.37 Yes Yes
2020GN3 O C K 2020-12-06.09609 1.000E-05 22:59:47.160 1.500E-01 0.500 F -0.072 -0.425 -03° 45' 14.70" 1.000E-01 0.500 F 0.343 0.055 21.9 R 0.70 0.83 o 691 0.87 Yes Yes
2020XR O C 2020-12-06.10290 1.000E-05 21:51:11.610 1.500E-01 0.500 F -0.161 -0.335 -01° 04' 31.10" 1.000E-01 0.500 F 0.193 -0.259 20.3 V 0.70 -0.35 o 691 0.85 Yes Yes
2020GN3 O C K 2020-12-06.10569 1.000E-05 22:59:49.230 1.500E-01 0.500 F -0.072 -0.046 -03° 44' 58.60" 1.000E-01 0.500 F 0.343 -0.207 o 691 0.43 Yes No
Ryugu O C 2020-12-06.10833 1.000E-05 23:00:17.990 1.500E-01 0.500 F -0.072 0.706 -03° 40' 31.10" 1.000E-01 0.500 F 0.343 1.499 17.1 V 0.70 0.32 o 691 3.31 No Yes
2020XR O C 2020-12-06.11375 1.000E-05 21:51:14.720 1.500E-01 0.500 F -0.161 -0.835 -01° 04' 34.90" 1.000E-01 0.500 F 0.193 1.752 20.1 V 0.70 -0.55 o 691 3.87 No Yes
2020GN3 O C K 2020-12-06.11531 1.000E-05 22:59:51.270 1.500E-01 0.500 F -0.072 -0.185 -03° 44' 41.90" 1.000E-01 0.500 F 0.343 0.097 21.5 R 0.70 0.43 o 691 0.42 Yes Yes
Ryugu O C 2020-12-06.11926 1.000E-05 23:00:18.760 1.500E-01 0.500 F -0.072 -0.225 -03° 41' 23.50" 1.000E-01 0.500 F 0.343 0.007 17.4 V 0.70 0.62 o 691 0.45 Yes Yes
2020XP O C K 2020-12-06.12722 1.000E-05 00:44:31.130 1.500E-01 0.500 F -0.235 0.178 +08° 13' 23.30" 1.000E-01 0.500 F 0.246 0.148 20.4 R 0.70 0.08 o 691 0.47 Yes Yes
2020XP O C K 2020-12-06.13426 1.000E-05 00:44:34.250 1.500E-01 0.500 F -0.235 -0.065 +08° 13' 34.20" 1.000E-01 0.500 F 0.246 0.069 20.6 R 0.70 0.28 o 691 0.19 Yes Yes
2020XP O C K 2020-12-06.14130 1.000E-05 00:44:37.410 1.500E-01 0.500 F -0.235 0.293 +08° 13' 45.50" 1.000E-01 0.500 F 0.246 0.402 20.4 R 0.70 0.08 o 691 1.00 Yes Yes
2020XF1 O C K 2020-12-06.16274 1.000E-05 02:12:13.240 1.500E-01 0.500 F -0.208 -0.101 +09° 55' 09.80" 1.000E-01 0.500 F 0.236 -0.740 19.8 R 0.70 -0.06 o 691 1.53 Yes Yes
2020VX1 O C K 2020-12-06.16780 1.000E-05 02:51:07.440 1.500E-01 0.500 F -0.347 -0.163 -01° 42' 24.40" 1.000E-01 0.500 F 0.266 -0.037 20.5 R 0.70 0.28 o 691 0.34 Yes Yes
2006RJ1 O C K 2020-12-06.17123 1.000E-05 02:10:02.570 1.500E-01 0.500 F -0.162 -0.017 +08° 21' 46.30" 1.000E-01 0.500 F 0.263 0.046 19.3 R 0.70 0.01 o 691 0.10 Yes Yes
2020XF1 O C K 2020-12-06.17344 1.000E-05 02:12:13.270 1.500E-01 0.500 F -0.208 0.056 +09° 52' 49.60" 1.000E-01 0.500 F 0.236 -0.168 20.0 R 0.70 0.14 o 691 0.36 Yes Yes
2020VX1 O C K 2020-12-06.17849 1.000E-05 02:51:11.600 1.500E-01 0.500 F -0.408 -0.218 -01° 42' 02.40" 1.000E-01 0.500 F 0.152 0.562 20.2 R 0.70 -0.02 o 691 1.21 Yes Yes
2006RJ1 O C K 2020-12-06.18192 1.000E-05 02:09:58.600 1.500E-01 0.500 F -0.162 0.173 +08° 21' 32.20" 1.000E-01 0.500 F 0.263 -0.032 19.4 R 0.70 0.11 o 691 0.35 Yes Yes
2020XF1 O C K 2020-12-06.18413 1.000E-05 02:12:13.290 1.500E-01 0.500 F -0.208 0.076 +09° 50' 28.70" 1.000E-01 0.500 F 0.236 -0.471 20.4 R 0.70 0.54 o 691 0.98 Yes Yes
2020VX1 O C K 2020-12-06.18918 1.000E-05 02:51:15.750 1.500E-01 0.500 F -0.408 -0.401 -01° 41' 41.30" 1.000E-01 0.500 F 0.152 0.148 20.2 R 0.70 -0.02 o 691 0.86 Yes Yes
2006RJ1 O C K 2020-12-06.19262 1.000E-05 02:09:54.610 1.500E-01 0.500 F -0.162 0.130 +08° 21' 18.70" 1.000E-01 0.500 F 0.263 0.538 19.2 R 0.70 -0.09 o 691 1.11 Yes Yes
2020XM1 O C K 2020-12-06.21721 1.000E-05 23:27:13.570 1.500E-01 0.500 F -0.016 0.068 +07° 46' 31.90" 1.000E-01 0.500 F 0.299 -0.661 21.2 R 0.70 0.44 o 691 1.35 Yes Yes
2020XM1 O C K 2020-12-06.22921 1.000E-05 23:27:13.610 1.500E-01 0.500 F -0.016 -0.569 +07° 47' 36.40" 1.000E-01 0.500 F 0.299 -0.287 21.2 R 0.70 0.44 o 691 1.30 Yes Yes
2003WJ98 O C K 2020-12-06.23461 1.000E-05 00:06:05.240 1.500E-01 0.500 F -0.136 -0.006 +05° 02' 24.60" 1.000E-01 0.500 F 0.313 0.691 20.4 R 0.70 0.04 o 691 1.46 Yes Yes
2020VX5 O C K 2020-12-06.24106 1.000E-05 01:05:01.580 1.500E-01 0.500 F -0.167 0.235 +28° 37' 16.80" 1.000E-01 0.500 F 0.161 0.158 21.2 R 0.70 0.43 o 691 0.57 Yes Yes
2003WJ98 O C K 2020-12-06.24613 1.000E-05 00:06:01.390 1.500E-01 0.500 F -0.136 0.182 +05° 04' 30.90" 1.000E-01 0.500 F 0.313 -0.349 o 691 0.82 Yes No
2020VX5 O C K 2020-12-06.25253 1.000E-05 01:05:05.200 1.500E-01 0.500 F -0.167 0.186 +28° 37' 25.40" 1.000E-01 0.500 F 0.161 0.008 20.5 R 0.70 -0.27 o 691 0.38 Yes Yes
2003WJ98 O C K 2020-12-06.25762 1.000E-05 00:05:57.530 1.500E-01 0.500 F -0.136 -0.195 +05° 06' 37.90" 1.000E-01 0.500 F 0.313 -0.312 20.2 R 0.70 -0.16 o 691 0.77 Yes Yes
2020VX5 O C K 2020-12-06.26403 1.000E-05 01:05:08.820 1.500E-01 0.500 F -0.167 -0.126 +28° 37' 34.00" 1.000E-01 0.500 F 0.161 -0.054 20.8 R 0.70 0.02 o 691 0.28 Yes Yes
2020XM O C K 2020-12-06.27330 1.000E-05 03:44:45.860 1.500E-01 0.500 F -0.102 -0.310 +17° 06' 55.00" 1.000E-01 0.500 F 0.318 -0.386 21.0 R 0.70 0.05 o 691 1.00 Yes Yes
2020XM O C K 2020-12-06.28349 1.000E-05 03:44:43.980 1.500E-01 0.500 F -0.102 -0.314 +17° 07' 26.40" 1.000E-01 0.500 F 0.318 0.370 21.0 R 0.70 0.05 o 691 0.99 Yes Yes
2020XM O C K 2020-12-06.29368 1.000E-05 03:44:42.120 1.500E-01 0.500 F -0.102 -0.043 +17° 07' 56.80" 1.000E-01 0.500 F 0.318 0.147 21.3 R 0.70 0.35 o 691 0.31 Yes Yes
2020XY O C K 2020-12-06.30382 1.000E-05 03:59:16.890 1.500E-01 0.612 F -0.195 0.134 +23° 48' 35.00" 1.000E-01 0.612 F 0.238 1.027 20.7 R 0.70 0.50 o 691 1.71 Yes Yes
2020XY O C K 2020-12-06.31464 1.000E-05 03:59:18.960 1.500E-01 0.612 F -0.195 0.361 +23° 49' 08.70" 1.000E-01 0.612 F 0.238 0.932 o 691 1.65 Yes No
2020XY O C K 2020-12-06.32547 1.000E-05 03:59:21.030 1.500E-01 0.612 F -0.195 0.396 +23° 49' 42.50" 1.000E-01 0.612 F 0.238 1.051 o 691 1.85 Yes No
2020XY O C K 2020-12-06.34677 1.000E-05 03:59:25.150 1.500E-01 0.612 F -0.195 0.546 +23° 50' 48.20" 1.000E-01 0.612 F 0.238 0.918 20.6 R 0.70 0.40 o 691 1.76 Yes Yes
2020XY O C K 2020-12-06.35761 1.000E-05 03:59:27.290 1.500E-01 0.612 F -0.195 0.859 +23° 51' 21.40" 1.000E-01 0.612 F 0.238 0.813 20.4 R 0.70 0.20 o 691 1.95 Yes Yes
2020XY O C K 2020-12-06.36844 1.000E-05 03:59:29.410 1.500E-01 0.612 F -0.195 0.650 +23° 51' 54.60" 1.000E-01 0.612 F 0.238 0.865 20.5 R 0.70 0.30 o 691 1.78 Yes Yes
2020WG5 O C K 2020-12-06.41721 1.000E-05 05:34:50.260 1.500E-01 0.500 F -0.099 0.796 +25° 11' 07.80" 1.000E-01 0.500 F 0.200 -0.404 21.1 R 0.70 0.27 o 691 1.86 Yes Yes
2020WG5 O C K 2020-12-06.43324 1.000E-05 05:34:49.380 1.500E-01 0.500 F -0.099 0.906 +25° 11' 22.90" 1.000E-01 0.500 F 0.200 -0.692 21.0 R 0.70 0.17 o 691 2.37 Yes Yes
2020WG5 O C K 2020-12-06.44929 1.000E-05 05:34:48.650 1.500E-01 0.500 F -0.099 1.806 +25° 11' 37.70" 1.000E-01 0.500 F 0.200 -0.528 21.1 R 0.70 0.27 o 691 3.62 No Yes
2020VZ5 O C K 2020-12-06.51909 1.000E-05 08:38:24.820 1.500E-01 0.500 F -0.125 -0.212 -17° 03' 31.80" 1.000E-01 0.500 F -0.055 0.266 20.1 R 0.70 0.16 o 691 0.69 Yes Yes
2020VZ5 O C K 2020-12-06.52919 1.000E-05 08:38:22.690 1.500E-01 0.500 F -0.125 0.129 -17° 04' 20.00" 1.000E-01 0.500 F -0.055 0.294 o 691 0.66 Yes No
2020TB12 O C K 2020-12-07.13007 1.000E-05 02:25:53.400 1.500E-01 0.500 F -0.402 -0.134 -25° 00' 13.20" 1.000E-01 0.500 F 0.339 -0.033 20.9 R 0.70 0.05 o 691 0.28 Yes Yes
2020TB12 O C K 2020-12-07.13457 1.000E-05 02:25:53.040 1.500E-01 0.500 F -0.402 0.020 -25° 00' 15.40" 1.000E-01 0.500 F 0.339 0.053 21.0 R 0.70 0.15 o 691 0.11 Yes Yes
2020TB12 O C K 2020-12-07.13906 1.000E-05 02:25:52.670 1.500E-01 0.500 F -0.402 0.036 -25° 00' 17.80" 1.000E-01 0.500 F 0.339 -0.075 20.5 R 0.70 -0.35 o 691 0.17 Yes Yes
2020RQ11 O C K 2020-12-07.14593 1.000E-05 23:55:49.110 1.500E-01 0.500 F -0.074 0.007 +23° 39' 39.80" 1.000E-01 0.500 F 0.249 0.044 20.4 R 0.70 0.06 o 691 0.09 Yes Yes
2020RQ11 O C K 2020-12-07.14989 1.000E-05 23:55:49.350 1.500E-01 0.500 F -0.074 -0.545 +23° 40' 01.70" 1.000E-01 0.500 F 0.249 -0.005 20.3 R 0.70 -0.04 o 691 1.10 Yes Yes
2020RQ11 O C K 2020-12-07.15386 1.000E-05 23:55:49.620 1.500E-01 0.500 F -0.074 -0.706 +23° 40' 24.20" 1.000E-01 0.500 F 0.249 0.500 20.5 R 0.70 0.16 o 691 1.75 Yes Yes
2020VY1 O C K 2020-12-07.16071 1.000E-05 02:17:49.030 1.500E-01 0.500 F -0.216 0.111 -23° 20' 55.50" 1.000E-01 0.500 F 0.336 0.187 o 691 0.45 Yes No
2020VY1 O C K 2020-12-07.17205 1.000E-05 02:17:53.930 1.500E-01 0.500 F -0.216 -0.111 -23° 22' 24.40" 1.000E-01 0.500 F 0.336 0.561 20.4 R 0.70 -0.20 o 691 1.19 Yes Yes
2020VY1 O C K 2020-12-07.18340 1.000E-05 02:17:58.840 1.500E-01 0.500 F -0.216 -0.213 -23° 23' 53.90" 1.000E-01 0.500 F 0.336 0.107 20.2 R 0.70 -0.40 o 691 0.50 Yes Yes
2020TH5 O C K 2020-12-07.19734 1.000E-05 00:25:33.280 1.500E-01 0.500 F -0.294 0.107 -09° 49' 50.90" 1.000E-01 0.500 F 0.272 -0.185 21.4 R 0.70 0.35 o 691 0.43 Yes Yes
2020TH5 O C K 2020-12-07.20898 1.000E-05 00:25:33.040 1.500E-01 0.500 F -0.294 0.228 -09° 49' 52.90" 1.000E-01 0.500 F 0.272 0.100 o 691 0.50 Yes No
2020TH5 O C K 2020-12-07.22072 1.000E-05 00:25:32.760 1.500E-01 0.500 F -0.294 -0.274 -09° 49' 55.10" 1.000E-01 0.500 F 0.272 0.187 21.8 R 0.70 0.75 o 691 0.66 Yes Yes
2020VT O C 2020-12-07.27254 1.000E-05 04:59:40.820 1.500E-01 0.500 F -0.279 -0.366 -11° 07' 55.20" 1.000E-01 0.500 F 0.117 -0.359 20.4 V 0.70 -0.04 o 691 1.05 Yes Yes
2020WY O C K 2020-12-07.27487 1.000E-05 04:18:11.130 1.500E-01 0.500 F -0.152 0.167 +05° 12' 21.00" 1.000E-01 0.500 F 0.419 0.250 21.2 R 0.70 0.42 o 691 0.60 Yes Yes
2020VT O C 2020-12-07.28098 1.000E-05 04:59:45.330 1.500E-01 0.500 F -0.279 -0.339 -11° 08' 05.20" 1.000E-01 0.500 F 0.117 0.113 20.3 V 0.70 -0.14 o 691 0.73 Yes Yes
2020WY O C K 2020-12-07.28222 1.000E-05 04:18:09.400 1.500E-01 0.500 F -0.152 -0.381 +05° 12' 32.20" 1.000E-01 0.500 F 0.419 -0.245 21.4 R 0.70 0.62 o 691 0.91 Yes Yes
2020VT O C 2020-12-07.28835 1.000E-05 04:59:49.320 1.500E-01 0.500 F -0.279 0.515 -11° 08' 14.80" 1.000E-01 0.500 F 0.117 -0.409 19.7 V 0.70 -0.74 o 691 1.34 Yes Yes
2020WY O C K 2020-12-07.28959 1.000E-05 04:18:07.730 1.500E-01 0.500 F -0.152 0.024 +05° 12' 44.00" 1.000E-01 0.500 F 0.419 -0.148 o 691 0.30 Yes No
2020XY O C K 2020-12-07.30096 1.000E-05 04:03:21.360 1.500E-01 0.500 F -0.073 -0.285 +24° 43' 34.40" 1.000E-01 0.500 F 0.289 -0.306 20.5 R 0.70 0.39 o 691 0.85 Yes Yes
2020XY O C K 2020-12-07.30686 1.000E-05 04:03:22.560 1.500E-01 0.500 F -0.073 -1.097 +24° 43' 55.30" 1.000E-01 0.500 F 0.289 0.681 o 691 2.61 Yes No
2020XY O C K 2020-12-07.31277 1.000E-05 04:03:23.900 1.500E-01 0.500 F -0.073 -0.075 +24° 44' 14.30" 1.000E-01 0.500 F 0.289 -0.217 20.5 R 0.70 0.39 o 691 0.47 Yes Yes
2011WL2 O C K 2020-12-07.32158 1.000E-05 06:21:04.400 1.500E-01 0.500 F 0.045 0.196 -16° 57' 11.80" 1.000E-01 0.500 F -0.102 0.061 20.4 R 0.70 0.40 o 691 0.41 Yes Yes
2020TT7 O C 2020-12-07.32570 1.000E-05 05:40:53.630 1.500E-01 0.500 F -0.122 0.060 -14° 35' 37.80" 1.000E-01 0.500 F 0.102 -0.117 20.4 V 0.70 -0.17 o 691 0.26 Yes Yes
2011WL2 O C K 2020-12-07.32730 1.000E-05 06:21:03.320 1.500E-01 0.500 F 0.045 0.060 -16° 57' 17.80" 1.000E-01 0.500 F -0.102 -0.030 20.3 R 0.70 0.30 o 691 0.14 Yes Yes
2020TT7 O C 2020-12-07.33142 1.000E-05 05:40:53.930 1.500E-01 0.500 F -0.122 -0.297 -14° 35' 38.20" 1.000E-01 0.500 F 0.102 -0.263 20.6 V 0.70 0.03 o 691 0.80 Yes Yes
2011WL2 O C K 2020-12-07.33302 1.000E-05 06:21:02.270 1.500E-01 0.500 F 0.045 0.361 -16° 57' 24.00" 1.000E-01 0.500 F -0.102 -0.331 20.7 R 0.70 0.70 o 691 0.98 Yes Yes
2020TT7 O C 2020-12-07.33720 1.000E-05 05:40:54.280 1.500E-01 0.500 F -0.122 0.023 -14° 35' 38.20" 1.000E-01 0.500 F 0.102 -0.021 20.9 V 0.70 0.33 o 691 0.06 Yes Yes
2020WD1 O C K 2020-12-07.34578 1.000E-05 03:35:34.280 1.500E-01 0.500 F -0.348 0.343 -07° 02' 58.40" 1.000E-01 0.500 F 0.207 0.089 20.9 R 0.70 0.21 o 691 0.71 Yes Yes
2020WD1 O C K 2020-12-07.34972 1.000E-05 03:35:33.950 1.500E-01 0.500 F -0.348 0.015 -07° 02' 58.40" 1.000E-01 0.500 F 0.207 -0.102 21.1 R 0.70 0.41 o 691 0.21 Yes Yes
2020WD1 O C K 2020-12-07.35365 1.000E-05 03:35:33.650 1.500E-01 0.500 F -0.348 0.102 -07° 02' 58.50" 1.000E-01 0.500 F 0.207 -0.396 20.6 R 0.70 -0.09 o 691 0.82 Yes Yes
2020XB2 O C K 2020-12-07.43082 1.000E-05 04:44:15.950 1.500E-01 0.500 F -0.107 0.032 +02° 00' 30.60" 1.000E-01 0.500 F 0.225 -0.588 19.5 R 0.70 0.06 o 691 1.20 Yes Yes
2020XB2 O C K 2020-12-07.43467 1.000E-05 04:44:17.890 1.500E-01 0.500 F -0.107 -0.001 +02° 01' 53.10" 1.000E-01 0.500 F 0.225 -0.842 19.7 R 0.70 0.26 o 691 1.72 Yes Yes
2020XB2 O C K 2020-12-07.43851 1.000E-05 04:44:19.830 1.500E-01 0.500 F -0.107 -0.007 +02° 03' 14.90" 1.000E-01 0.500 F 0.225 -1.441 19.5 R 0.70 0.06 o 691 2.94 Yes Yes
2020XE O C K 2020-12-07.44462 1.000E-05 04:37:21.650 1.500E-01 0.500 F -0.110 0.175 +18° 16' 49.30" 1.000E-01 0.500 F 0.292 -0.532 21.3 R 0.70 0.29 o 691 1.14 Yes Yes
2020XE O C K 2020-12-07.45136 1.000E-05 04:37:21.110 1.500E-01 0.500 F -0.110 0.046 +18° 16' 50.50" 1.000E-01 0.500 F 0.292 -0.054 21.4 R 0.70 0.38 o 691 0.15 Yes Yes
2020XE O C K 2020-12-07.45810 1.000E-05 04:37:20.590 1.500E-01 0.500 F -0.110 0.043 +18° 16' 51.20" 1.000E-01 0.500 F 0.292 -0.047 21.9 R 0.70 0.88 o 691 0.13 Yes Yes
2010WT8 O C K 2020-12-07.48308 1.000E-05 07:02:51.410 1.500E-01 0.500 F -0.210 -0.018 +29° 20' 30.50" 1.000E-01 0.500 F 0.288 -0.035 o 691 0.08 Yes No
2010WT8 O C K 2020-12-07.49871 1.000E-05 07:02:50.190 1.500E-01 0.500 F -0.210 0.110 +29° 20' 44.90" 1.000E-01 0.500 F 0.288 -0.099 o 691 0.30 Yes No
2016BZ14 O C K 2020-12-07.51879 1.000E-05 12:24:45.440 1.500E-01 0.500 F 0.278 0.050 -08° 27' 29.80" 1.000E-01 0.500 F -0.071 -0.176 20.5 R 0.70 0.38 o 691 0.37 Yes Yes
2016BZ14 O C K 2020-12-07.52777 1.000E-05 12:24:48.450 1.500E-01 0.500 F 0.278 -0.292 -08° 27' 26.30" 1.000E-01 0.500 F -0.071 -0.138 20.4 R 0.70 0.28 o 691 0.67 Yes Yes
2016BZ14 O C K 2020-12-07.53674 1.000E-05 12:24:51.490 1.500E-01 0.500 F 0.278 -0.128 -08° 27' 22.80" 1.000E-01 0.500 F -0.071 -0.102 20.4 R 0.70 0.28 o 691 0.34 Yes Yes
2012XA O C K 2020-12-08.10919 1.000E-05 01:53:55.390 1.500E-01 0.500 F -0.184 -0.281 +02° 49' 39.20" 1.000E-01 0.500 F 0.310 -0.283 20.8 R 0.70 0.63 o 691 0.80 Yes Yes
2012XA O C K 2020-12-08.11344 1.000E-05 01:53:56.300 1.500E-01 0.500 F -0.184 0.213 +02° 49' 11.70" 1.000E-01 0.500 F 0.310 -0.015 19.6 R 0.70 -0.57 o 691 0.43 Yes Yes
2012XA O C K 2020-12-08.11770 1.000E-05 01:53:57.190 1.500E-01 0.500 F -0.184 0.407 +02° 48' 43.50" 1.000E-01 0.500 F 0.310 -0.374 20.0 R 0.70 -0.17 o 691 1.11 Yes Yes
2020XE O C K 2020-12-08.22579 1.000E-05 04:36:49.730 1.500E-01 0.500 F -0.110 -0.170 +18° 20' 01.70" 1.000E-01 0.500 F 0.292 -0.146 22.3 R 0.70 0.97 o 691 0.45 Yes Yes
2020XE O C K 2020-12-08.25039 1.000E-05 04:36:47.800 1.500E-01 0.500 F -0.110 -0.141 +18° 20' 08.00" 1.000E-01 0.500 F 0.292 -0.171 21.8 R 0.70 0.46 o 691 0.45 Yes Yes
2020XE O C K 2020-12-08.26198 1.000E-05 04:36:46.860 1.500E-01 0.500 F -0.110 -0.462 +18° 20' 11.30" 1.000E-01 0.500 F 0.292 0.368 21.5 R 0.70 0.15 o 691 1.19 Yes Yes
2020XE2 O C K 2020-12-08.27471 1.000E-05 05:23:02.510 1.500E-01 0.500 F -0.089 -0.007 +23° 34' 24.30" 1.000E-01 0.500 F 0.186 -0.283 o 691 0.59 Yes No
2020WG5 O C K 2020-12-08.28104 1.000E-05 05:35:34.940 1.500E-01 0.500 F -0.096 -0.171 +25° 44' 14.80" 1.000E-01 0.500 F 0.231 0.145 22.1 R 0.70 0.96 o 691 0.47 Yes Yes
2020WG5 O C K 2020-12-08.29249 1.000E-05 05:35:34.180 1.500E-01 0.500 F -0.096 -0.290 +25° 44' 26.60" 1.000E-01 0.500 F 0.231 0.397 21.7 R 0.70 0.56 o 691 1.03 Yes Yes
2020XE2 O C K 2020-12-08.29761 1.000E-05 05:23:04.720 1.500E-01 0.500 F -0.089 0.306 +23° 34' 50.00" 1.000E-01 0.500 F 0.186 0.429 o 691 1.09 Yes No
2020WG5 O C K 2020-12-08.30394 1.000E-05 05:35:33.450 1.500E-01 0.500 F -0.096 0.185 +25° 44' 37.50" 1.000E-01 0.500 F 0.231 0.155 21.6 R 0.70 0.45 o 691 0.50 Yes Yes
2012UK171 O C K 2020-12-08.34526 1.000E-05 07:49:50.780 1.500E-01 0.500 F -0.001 -0.105 +18° 24' 22.90" 1.000E-01 0.500 F 0.338 -0.059 19.9 R 0.70 -0.08 o 691 0.24 Yes Yes
2000MU1 O C K 2020-12-08.34718 1.000E-05 08:22:31.440 1.500E-01 0.500 F -0.019 -0.297 -05° 50' 39.30" 1.000E-01 0.500 F 0.039 -0.190 19.7 R 0.70 -0.15 o 691 0.71 Yes Yes
2012UK171 O C K 2020-12-08.35356 1.000E-05 07:49:48.540 1.500E-01 0.500 F -0.001 0.646 +18° 24' 18.80" 1.000E-01 0.500 F 0.338 0.438 20.1 R 0.70 0.12 o 691 1.57 Yes Yes
2000MU1 O C K 2020-12-08.35671 1.000E-05 08:22:32.500 1.500E-01 0.500 F -0.019 0.117 -05° 50' 47.20" 1.000E-01 0.500 F 0.039 -0.108 19.7 R 0.70 -0.15 o 691 0.32 Yes Yes
2012UK171 O C K 2020-12-08.36177 1.000E-05 07:49:46.220 1.500E-01 0.500 F -0.001 0.038 +18° 24' 13.50" 1.000E-01 0.500 F 0.338 -0.237 20.0 R 0.70 0.03 o 691 0.48 Yes Yes
2000MU1 O C K 2020-12-08.36624 1.000E-05 08:22:33.520 1.500E-01 0.500 F -0.019 -0.035 -05° 50' 55.30" 1.000E-01 0.500 F 0.039 -0.230 o 691 0.47 Yes No
2020WH2 O C K 2020-12-08.38386 1.000E-05 09:58:42.230 1.500E-01 0.500 F 0.094 0.288 +20° 59' 08.50" 1.000E-01 0.500 F 0.250 -0.300 19.4 R 0.70 -0.28 o 691 0.84 Yes Yes
2020WH2 O C K 2020-12-08.39108 1.000E-05 09:58:40.700 1.500E-01 0.500 F 0.094 -0.226 +20° 58' 31.90" 1.000E-01 0.500 F 0.250 -0.251 19.3 R 0.70 -0.38 o 691 0.68 Yes Yes
2020WH2 O C K 2020-12-08.39845 1.000E-05 09:58:39.170 1.500E-01 0.500 F 0.094 -0.273 +20° 57' 54.80" 1.000E-01 0.500 F 0.250 0.074 19.7 R 0.70 0.02 o 691 0.57 Yes Yes
2015VD66 O C K 2020-12-08.41106 1.000E-05 11:56:09.640 1.500E-01 0.500 F 0.198 0.008 +30° 43' 06.30" 1.000E-01 0.500 F 0.395 -0.295 o 691 0.61 Yes No
2015VD66 O C K 2020-12-08.42502 1.000E-05 11:56:13.090 1.500E-01 0.500 F 0.198 0.341 +30° 43' 11.60" 1.000E-01 0.500 F 0.395 -0.073 o 691 0.73 Yes No
2015VD66 O C K 2020-12-08.43898 1.000E-05 11:56:16.490 1.500E-01 0.500 F 0.198 0.084 +30° 43' 16.60" 1.000E-01 0.500 F 0.395 -0.134 o 691 0.33 Yes No
2015AY245 O C K 2020-12-08.51037 1.000E-05 10:27:41.630 1.500E-01 0.500 F 0.137 -0.037 -20° 41' 26.30" 1.000E-01 0.500 F -0.094 -0.078 o 691 0.17 Yes No
2015AY245 O C K 2020-12-08.52278 1.000E-05 10:27:44.790 1.500E-01 0.500 F 0.137 2.263 -20° 41' 33.30" 1.000E-01 0.500 F -0.094 0.199 o 691 4.48 No No
2015AY245 O C K 2020-12-08.53519 1.000E-05 10:27:47.690 1.500E-01 0.500 F 0.137 0.916 -20° 41' 41.10" 1.000E-01 0.500 F -0.094 -0.368 o 691 1.99 Yes No
2020XR O C 2020-12-09.06532 1.000E-05 22:06:20.680 1.500E-01 0.500 F -0.068 0.193 -01° 32' 06.20" 1.000E-01 0.500 F 0.183 -0.189 20.5 V 0.70 -0.08 o 691 0.54 Yes Yes
2020XR O C 2020-12-09.07059 1.000E-05 22:06:22.280 1.500E-01 0.500 F -0.068 -0.360 -01° 32' 08.90" 1.000E-01 0.500 F 0.183 0.166 20.5 V 0.70 -0.08 o 691 0.79 Yes Yes
2020XR O C 2020-12-09.07587 1.000E-05 22:06:23.880 1.500E-01 0.500 F -0.068 -0.969 -01° 32' 12.90" 1.000E-01 0.500 F 0.183 -0.774 20.8 V 0.70 0.22 o 691 2.49 Yes Yes
2020XQ3 O C K 2020-12-09.31993 1.000E-05 02:44:46.160 1.500E-01 0.500 F -0.159 1.276 +25° 23' 51.00" 1.000E-01 0.500 F 0.287 0.022 22.5 R 0.70 0.59 o 691 2.57 Yes Yes
2020XQ3 O C K 2020-12-09.35750 1.000E-05 02:44:52.870 1.500E-01 0.500 F -0.159 0.446 +25° 23' 57.80" 1.000E-01 0.500 F 0.287 0.378 21.8 R 0.70 -0.11 o 691 1.18 Yes Yes
2016JU33 O C 2020-12-09.37457 1.000E-05 02:35:50.280 1.500E-01 0.612 F -0.200 -0.217 +26° 10' 10.10" 1.000E-01 0.612 F 0.310 0.128 o 691 0.41 Yes No
1997WU22 O C 2020-12-09.37457 1.000E-05 02:33:37.870 1.500E-01 0.500 F -0.200 -0.003 +26° 03' 33.30" 1.000E-01 0.500 F 0.310 -0.066 o 691 0.13 Yes No
2016JU33 O C K 2020-12-09.37457 1.000E-05 02:35:50.310 1.500E-01 0.612 F -0.200 0.187 +26° 10' 10.00" 1.000E-01 0.612 F 0.310 0.028 20.0 R 0.13 o 691 0.31 Yes Yes
2016JU33 O C K 2020-12-09.37905 1.000E-05 02:35:49.530 1.500E-01 0.612 F -0.200 0.130 +26° 10' 05.30" 1.000E-01 0.612 F 0.310 0.004 20.0 R 0.70 0.13 o 691 0.21 Yes Yes
1997WU22 O C 2020-12-09.38054 1.000E-05 02:33:37.500 1.500E-01 0.500 F -0.200 -0.004 +26° 03' 27.80" 1.000E-01 0.500 F 0.310 -0.058 o 691 0.12 Yes No
2016JU33 O C 2020-12-09.38054 1.000E-05 02:35:49.250 1.500E-01 0.612 F -0.200 -0.170 +26° 10' 03.70" 1.000E-01 0.612 F 0.310 -0.040 o 691 0.29 Yes No
2016JU33 O C K 2020-12-09.38352 1.000E-05 02:35:48.780 1.500E-01 0.612 F -0.200 0.436 +26° 10' 00.70" 1.000E-01 0.612 F 0.310 0.073 19.9 R 0.70 0.03 o 691 0.72 Yes Yes
1997WU22 O C 2020-12-09.38650 1.000E-05 02:33:37.120 1.500E-01 0.500 F -0.200 -0.157 +26° 03' 22.20" 1.000E-01 0.500 F 0.310 -0.159 o 691 0.45 Yes No
2016JU33 O C 2020-12-09.38650 1.000E-05 02:35:48.240 1.500E-01 0.612 F -0.200 0.093 +26° 09' 57.60" 1.000E-01 0.612 F 0.310 0.088 o 691 0.21 Yes No
2020WF3 O C K 2020-12-09.39669 1.000E-05 04:23:10.930 1.500E-01 0.500 F -0.271 -0.192 +20° 36' 00.10" 1.000E-01 0.500 F 0.252 -0.474 20.5 R 0.70 0.35 o 691 1.03 Yes Yes
2020WF3 O C K 2020-12-09.40025 1.000E-05 04:23:10.380 1.500E-01 0.500 F -0.271 0.287 +20° 35' 41.30" 1.000E-01 0.500 F 0.252 0.180 20.1 R 0.70 -0.05 o 691 0.68 Yes Yes
2020XV2 O C K 2020-12-09.40786 1.000E-05 05:30:48.830 1.500E-01 0.500 F -0.004 0.062 -19° 46' 59.30" 1.000E-01 0.500 F -0.162 0.131 20.6 R 0.70 0.66 o 691 0.30 Yes Yes
2020XV2 O C K 2020-12-09.41112 1.000E-05 05:30:50.270 1.500E-01 0.500 F -0.004 0.375 -19° 47' 01.90" 1.000E-01 0.500 F -0.162 0.050 20.7 R 0.70 0.76 o 691 0.77 Yes Yes
2020XV2 O C K 2020-12-09.41439 1.000E-05 05:30:51.660 1.500E-01 0.500 F -0.004 -0.099 -19° 47' 04.30" 1.000E-01 0.500 F -0.162 0.167 20.6 R 0.70 0.66 o 691 0.39 Yes Yes
2020VT O C K 2020-12-09.42370 1.000E-05 05:19:33.610 1.500E-01 0.500 F -0.121 -0.080 -11° 43' 33.50" 1.000E-01 0.500 F 0.105 -0.083 o 691 0.23 Yes No
2020VT O C K 2020-12-09.42823 1.000E-05 05:19:35.860 1.500E-01 0.500 F -0.121 0.433 -11° 43' 36.50" 1.000E-01 0.500 F 0.105 0.051 o 691 0.89 Yes No
2011WL2 O C K 2020-12-09.43916 1.000E-05 06:14:45.020 1.500E-01 0.612 F -0.011 0.318 -17° 30' 21.30" 1.000E-01 0.612 F -0.116 -0.241 20.4 R 0.39 o 691 0.65 Yes Yes
2011WL2 O C 2020-12-09.43916 1.000E-05 06:14:44.980 1.500E-01 0.612 F -0.011 -0.254 -17° 30' 21.20" 1.000E-01 0.612 F -0.116 -0.141 o 691 0.48 Yes No
2011WL2 O C K 2020-12-09.44356 1.000E-05 06:14:44.170 1.500E-01 0.612 F -0.011 -0.089 -17° 30' 24.70" 1.000E-01 0.612 F -0.116 0.029 20.3 R 0.70 0.29 o 691 0.15 Yes Yes
2011WL2 O C 2020-12-09.44503 1.000E-05 06:14:43.860 1.500E-01 0.612 F -0.011 -0.599 -17° 30' 26.00" 1.000E-01 0.612 F -0.116 -0.046 o 691 0.99 Yes No
2011WL2 O C K 2020-12-09.44797 1.000E-05 06:14:43.350 1.500E-01 0.612 F -0.011 -0.049 -17° 30' 28.60" 1.000E-01 0.612 F -0.116 -0.199 20.3 R 0.70 0.29 o 691 0.33 Yes Yes
2011WL2 O C 2020-12-09.45091 1.000E-05 06:14:42.790 1.500E-01 0.612 F -0.011 -0.218 -17° 30' 30.80" 1.000E-01 0.612 F -0.116 0.047 o 691 0.36 Yes No
2010WT8 O C K 2020-12-09.46064 1.000E-05 07:00:18.260 1.500E-01 0.500 F -0.129 -0.094 +29° 52' 58.10" 1.000E-01 0.500 F 0.262 0.219 o 691 0.48 Yes No
2010WT8 O C K 2020-12-09.46667 1.000E-05 07:00:17.710 1.500E-01 0.500 F -0.129 0.012 +29° 53' 04.00" 1.000E-01 0.500 F 0.262 0.222 o 691 0.45 Yes No
2012UK171 O C K 2020-12-09.47405 1.000E-05 07:45:02.590 1.500E-01 0.500 F -0.004 0.156 +18° 11' 54.70" 1.000E-01 0.500 F 0.275 -0.241 o 691 0.58 Yes No
2012UK171 O C K 2020-12-09.47759 1.000E-05 07:45:01.520 1.500E-01 0.500 F -0.004 0.329 +18° 11' 52.20" 1.000E-01 0.500 F 0.275 -0.026 o 691 0.66 Yes No
2012UK171 O C K 2020-12-09.48113 1.000E-05 07:45:00.440 1.500E-01 0.500 F -0.004 0.345 +18° 11' 49.50" 1.000E-01 0.500 F 0.275 0.004 o 691 0.69 Yes No
2000MU1 O C K 2020-12-09.48877 1.000E-05 08:24:41.800 1.500E-01 0.612 F -0.019 -0.322 -06° 06' 29.40" 1.000E-01 0.612 F 0.039 0.005 19.7 R 0.70 -0.09 o 691 0.53 Yes Yes
2000MU1 O C 2020-12-09.48877 1.000E-05 08:24:41.780 1.500E-01 0.612 F -0.019 -0.621 -06° 06' 29.50" 1.000E-01 0.612 F 0.039 -0.095 o 691 1.03 Yes No
2000MU1 O C K 2020-12-09.49342 1.000E-05 08:24:42.310 1.500E-01 0.612 F -0.019 -0.276 -06° 06' 33.30" 1.000E-01 0.612 F 0.039 -0.038 19.8 R 0.70 0.01 o 691 0.46 Yes Yes
2000MU1 O C 2020-12-09.49497 1.000E-05 08:24:42.470 1.500E-01 0.612 F -0.019 -0.411 -06° 06' 34.50" 1.000E-01 0.612 F 0.039 0.047 o 691 0.68 Yes No
2000MU1 O C K 2020-12-09.49807 1.000E-05 08:24:42.840 1.500E-01 0.612 F -0.019 0.063 -06° 06' 37.00" 1.000E-01 0.612 F 0.039 0.118 19.8 R 0.70 0.01 o 691 0.22 Yes Yes
2000MU1 O C 2020-12-09.50117 1.000E-05 08:24:43.160 1.500E-01 0.612 F -0.019 -0.211 -06° 06' 39.60" 1.000E-01 0.612 F 0.039 0.087 o 691 0.38 Yes No
2020MZ3 O C K 2020-12-09.50399 1.000E-05 10:03:06.040 1.500E-01 0.500 F 0.024 -0.265 +07° 35' 29.50" 1.000E-01 0.500 F 0.151 0.273 21.8 R 0.70 0.42 o 691 0.76 Yes Yes
2020MZ3 O C K 2020-12-09.51297 1.000E-05 10:03:06.020 1.500E-01 0.500 F 0.024 0.162 +07° 35' 31.60" 1.000E-01 0.500 F 0.151 -0.025 22.0 R 0.70 0.62 o 691 0.33 Yes Yes
2020MZ3 O C K 2020-12-09.52196 1.000E-05 10:03:05.980 1.500E-01 0.500 F 0.024 0.295 +07° 35' 34.10" 1.000E-01 0.500 F 0.151 0.077 21.5 R 0.70 0.12 o 691 0.61 Yes Yes
2020XR O C K 2020-12-12.06577 1.000E-05 22:22:50.190 1.500E-01 0.500 F -0.036 0.539 -02° 02' 12.20" 1.000E-01 0.500 F 0.407 0.106 20.1 R 0.70 -0.01 o 691 1.10 Yes Yes
2020XR O C K 2020-12-12.06959 1.000E-05 22:22:51.400 1.500E-01 0.500 F -0.036 -0.456 -02° 02' 14.60" 1.000E-01 0.500 F 0.407 0.080 20.5 R 0.70 0.39 o 691 0.93 Yes Yes
2020XR O C K 2020-12-12.07342 1.000E-05 22:22:52.710 1.500E-01 0.500 F -0.036 -0.008 -02° 02' 16.90" 1.000E-01 0.500 F 0.407 0.160 20.2 R 0.70 0.09 o 691 0.32 Yes Yes
2020XT4 O C K 2020-12-12.28402 1.000E-05 07:44:32.660 1.500E-01 0.500 F -0.004 0.095 +18° 17' 08.70" 1.000E-01 0.500 F 0.275 -0.413 21.3 R 0.70 0.60 o 691 0.85 Yes Yes
2020XT4 O C K 2020-12-12.28801 1.000E-05 07:44:32.420 1.500E-01 0.500 F -0.004 0.038 +18° 16' 57.20" 1.000E-01 0.500 F 0.275 0.003 20.9 R 0.70 0.20 o 691 0.08 Yes Yes
2020XT4 O C K 2020-12-12.29198 1.000E-05 07:44:32.180 1.500E-01 0.500 F -0.004 -0.027 +18° 16' 45.20" 1.000E-01 0.500 F 0.275 -0.136 21.3 R 0.70 0.60 o 691 0.28 Yes Yes
2020XX3 O C K 2020-12-12.33169 1.000E-05 03:45:49.770 1.500E-01 0.500 F -0.212 0.094 +24° 04' 58.30" 1.000E-01 0.500 F 0.384 -0.157 20.1 R 0.70 -0.07 o 691 0.37 Yes Yes
2020XX3 O C K 2020-12-12.33857 1.000E-05 03:45:48.040 1.500E-01 0.500 F -0.212 0.303 +24° 04' 49.80" 1.000E-01 0.500 F 0.384 -0.108 20.1 R 0.70 -0.06 o 691 0.65 Yes Yes
2020XX3 O C K 2020-12-12.34692 1.000E-05 03:45:45.990 1.500E-01 0.500 F -0.212 0.631 +24° 04' 38.50" 1.000E-01 0.500 F 0.384 -0.618 19.5 R 0.70 -0.66 o 691 1.77 Yes Yes
2020XU3 O C K 2020-12-12.35874 1.000E-05 03:46:10.130 1.500E-01 0.500 F -0.500 0.726 -00° 28' 27.30" 1.000E-01 0.500 F 0.276 -0.176 o 691 1.51 Yes No
2020XV3 O C K 2020-12-12.36512 1.000E-05 03:46:48.440 1.500E-01 0.500 F -0.349 0.189 -01° 29' 17.30" 1.000E-01 0.500 F 0.249 -0.582 21.0 R 0.70 0.46 o 691 1.25 Yes Yes
2020XV3 O C K 2020-12-12.37614 1.000E-05 03:46:44.340 1.500E-01 0.500 F -0.349 -0.114 -01° 27' 52.40" 1.000E-01 0.500 F 0.249 0.063 20.7 R 0.70 0.16 o 691 0.27 Yes Yes
2020XU3 O C K 2020-12-12.38078 1.000E-05 03:46:06.730 1.500E-01 0.500 F -0.500 0.343 -00° 28' 53.00" 1.000E-01 0.500 F 0.276 -0.267 o 691 0.88 Yes No
2020XV3 O C K 2020-12-12.38716 1.000E-05 03:46:40.320 1.500E-01 0.500 F -0.349 0.630 -01° 26' 28.00" 1.000E-01 0.500 F 0.249 0.218 20.9 R 0.70 0.36 o 691 1.37 Yes Yes
2020XF6 O C K 2020-12-12.45732 1.000E-05 09:16:16.080 1.500E-01 0.500 F 0.037 -0.392 +13° 44' 43.00" 1.000E-01 0.500 F 0.247 0.046 21.7 R 0.70 -0.30 o 691 0.80 Yes Yes
2020XF6 O C K 2020-12-12.46536 1.000E-05 09:16:17.880 1.500E-01 0.500 F 0.037 -0.173 +13° 44' 28.00" 1.000E-01 0.500 F 0.247 -0.101 22.2 R 0.70 0.21 o 691 0.40 Yes Yes
2020XF6 O C K 2020-12-12.47342 1.000E-05 09:16:19.730 1.500E-01 0.500 F 0.037 0.712 +13° 44' 12.80" 1.000E-01 0.500 F 0.247 -0.397 21.6 R 0.70 -0.39 o 691 1.65 Yes Yes
2020XX3 O C K 2020-12-13.42520 1.000E-05 03:43:54.060 1.500E-01 0.500 F -0.212 -0.041 +23° 50' 19.40" 1.000E-01 0.500 F 0.384 0.038 19.9 R 0.70 0.13 o 691 0.11 Yes Yes

[1-200] [201-400] [401-600] [601-800] [801-1000] [1001-1200] [1201-1400] [1401-1600] [1601-1800] [1801-2000] [2001-2200] [2201-2400] [2401-2600] [2601-2800] [2801-3000] [3001-3200] [3201-3400] [3401-3600] [3601-3800] [3801-4000] [4001-4200] [4201-4400] [4401-4600] [4601-4800] [4801-5000] [5001-5200] [5201-5400] [5401-5600] [5601-5800] [5801-6000] [6001-6200] [6201-6400] [6401-6600] [6601-6800] [6801-7000] [7001-7200] [7201-7400] [7401-7600] [7601-7800] [7801-8000] [8001-8200] [8201-8400] [8401-8600] [8601-8800] [8801-9000] [9001-9200] [9201-9400] [9401-9600] [9601-9800] [9801-10000] [10001-10200] [10201-10400] [10401-10600] [10601-10800] [10801-11000] [11001-11200] [11201-11400] [11401-11600] [11601-11800] [11801-12000] [12001-12200] [12201-12400] [12401-12600] [12601-12800] [12801-13000] [13001-13200] [13201-13400] [13401-13600] [13601-13800] [13801-14000] [14001-14200] [14201-14400] [14401-14600] [14601-14800] [14801-15000] [15001-15200] [15201-15400] [15401-15600] [15601-15800] [15801-16000] [16001-16200] [16201-16400] [16401-16600] [16601-16800] [16801-17000] [17001-17200] [17201-17400] [17401-17600] [17601-17800] [17801-18000] [18001-18200] [18201-18400] [18401-18600] [18601-18800] [18801-19000] [19001-19200] [19201-19400] [19401-19600] [19601-19800] [19801-20000] [20001-20200] [20201-20400] [20401-20600] [20601-20800] [20801-21000] [21001-21200] [21201-21400] [21401-21600] [21601-21800] [21801-22000] [22001-22200] [22201-22400] [22401-22600] [22601-22800] [22801-23000] [23001-23200] [23201-23400] [23401-23600] [23601-23800] [23801-24000] [24001-24200] [24201-24400] [24401-24600] [24601-24800] [24801-25000] [25001-25200] [25201-25400] [25401-25600] [25601-25800] [25801-26000] [26001-26200] [26201-26400] [26401-26600] [26601-26800] [26801-27000] [27001-27200] [27201-27400] [27401-27600] [27601-27800] [27801-28000] [28001-28200] [28201-28400] [28401-28600] [28601-28800] [28801-29000] [29001-29200] [29201-29400] [29401-29600] [29601-29800] [29801-30000] [30001-30200] [30201-30400] [30401-30600] [30601-30800] [30801-31000] [31001-31200] [31201-31400] [31401-31600] [31601-31800] [31801-32000] [32001-32200] [32201-32400] [32401-32600] [32601-32800] [32801-33000] [33001-33200] [33201-33400] [33401-33600] [33601-33800] [33801-34000] [34001-34200] [34201-34400] [34401-34600] [34601-34800] [34801-35000] [35001-35200] [35201-35400] [35401-35600] [35601-35800] [35801-36000] [36001-36200] [36201-36400] [36401-36600] [36601-36800] [36801-37000] [37001-37200] [37201-37400] [37401-37600] [37601-37800] [37801-38000] [38001-38200] [38201-38400] [38401-38600] [38601-38800] [38801-39000] [39001-39200] [39201-39400] [39401-39600] [39601-39800] [39801-40000] [40001-40200] [40201-40400] [40401-40600] [40601-40800] [40801-41000] [41001-41200] [41201-41400] [41401-41600] [41601-41800] [41801-42000] [42001-42200] [42201-42400] [42401-42600] [42601-42800] [42801-43000] [43001-43200] [43201-43400] [43401-43600] [43601-43800] [43801-44000] [44001-44200] [44201-44400] [44401-44600] [44601-44800] [44801-45000] [45001-45200] [45201-45400] [45401-45600] [45601-45800] [45801-46000] [46001-46200] [46201-46400] [46401-46600] [46601-46800] [46801-47000] [47001-47200] [47201-47400] [47401-47600] [47601-47800] [47801-48000] [48001-48200] [48201-48400] [48401-48600] [48601-48800] [48801-49000] [49001-49200] [49201-49400] [49401-49600] [49601-49800] [49801-50000] [50001-50200] [50201-50388]